Ruidoso, NM

1:28 AM MDT on June 28, 2017 (GMT -0600)
Sierra Blanca Regional

Weather History for KSRR - December, 2012

Change the Weather History Date:

Saturday, December 8, 2012

  Actual Average Record
Temperature  
Mean Temperature 46 °F -  
Max Temperature 57 °F 47 °F 62 °F (1996)
Min Temperature 35 °F 27 °F 3 °F (2005)
Degree Days  
Heating Degree Days 19    
Moisture  
Dew Point 16 °F    
Average Humidity 33    
Maximum Humidity 52    
Minimum Humidity 14    
Precipitation  
Precipitation 0.00 in - - ()
Sea Level Pressure  
Sea Level Pressure 29.95 in    
Wind  
Wind Speed 10 mph (West)    
Max Wind Speed 25 mph    
Max Gust Speed 37 mph    
Visibility 10 miles    
Events      
Averages and records for this station are not official NWS values.
T = Trace of Precipitation, MM = Missing Value Source: NWS Daily Summary

Daily Weather History Graph

Daily Weather History Graph

Search for Another Location

Airport or City:

Trip Planner

Search our weather history database for the weather conditions in past years. The results will help you decide how hot, cold, wet, or windy it might be!

Date:

Astronomy

Dec. 08, 2012 Rise Set
Actual Time 6:54 AM MST 4:54 PM MST
Civil Twilight 6:26 AM MST 5:21 PM MST
Nautical Twilight 5:55 AM MST 5:52 PM MST
Astronomical Twilight 5:25 AM MST 6:22 PM MST
Moon 1:34 AM MST (12/8) 1:14 PM MST (12/8)
Length of Visible Light 10h 54m
Length of Day
10h 00m
Waning Crescent, 27% of the Moon is Illuminated
Dec 8
Waning Crescent
Dec 13
New
Dec 19
First Quarter
Dec 28
Full
Jan 4
Last Quarter

Hourly Weather History & Observations

Time (MST) Temp. Windchill Dew Point Humidity Pressure Visibility Wind Dir Wind Speed Gust Speed Precip Events Conditions
12:15 AM 41.0 °F 34.7 °F 23.0 °F 49% 30.01 in 10.0 mi WNW 10.4 mph - N/A   Clear
12:35 AM 41.0 °F 35.2 °F 23.0 °F 49% 30.01 in 10.0 mi West 9.2 mph - N/A   Clear
12:55 AM 41.0 °F 35.8 °F 23.0 °F 49% 30.01 in 10.0 mi West 8.1 mph - N/A   Clear
1:15 AM 39.2 °F 33.6 °F 23.0 °F 52% 30.01 in 10.0 mi WNW 8.1 mph - N/A   Clear
1:35 AM 39.2 °F 33.6 °F 21.2 °F 49% 30.01 in 10.0 mi West 8.1 mph - N/A   Clear
1:55 AM 39.2 °F 33.0 °F 21.2 °F 49% 30.01 in 10.0 mi WNW 9.2 mph - N/A   Clear
2:15 AM 41.0 °F 35.8 °F 21.2 °F 45% 30.01 in 10.0 mi WNW 8.1 mph - N/A   Clear
2:35 AM 39.2 °F 33.6 °F 21.2 °F 49% 30.01 in 10.0 mi WNW 8.1 mph - N/A   Clear
2:55 AM 39.2 °F 33.6 °F 19.4 °F 45% 30.00 in 10.0 mi West 8.1 mph - N/A   Clear
3:15 AM 39.2 °F 33.0 °F 19.4 °F 45% 30.00 in 10.0 mi West 9.2 mph - N/A   Clear
3:35 AM 39.2 °F 35.0 °F 19.4 °F 45% 30.00 in 10.0 mi West 5.8 mph - N/A   Clear
4:15 AM 37.4 °F 32.8 °F 19.4 °F 48% 30.00 in 10.0 mi SW 5.8 mph - N/A   Clear
4:35 AM 39.2 °F 37.0 °F 19.4 °F 45% 29.99 in 10.0 mi SW 3.5 mph - N/A   Clear
4:55 AM 41.0 °F - 21.2 °F 45% 29.99 in 10.0 mi Calm Calm - N/A   Clear
5:15 AM 39.2 °F 35.0 °F 19.4 °F 45% 29.99 in 10.0 mi SW 5.8 mph - N/A   Clear
5:35 AM 39.2 °F - 19.4 °F 45% 29.99 in 10.0 mi Calm Calm - N/A   Clear
5:55 AM 37.4 °F 34.9 °F 19.4 °F 48% 30.00 in 10.0 mi SSW 3.5 mph - N/A   Clear
6:15 AM 35.6 °F 31.7 °F 19.4 °F 52% 30.00 in 10.0 mi SSW 4.6 mph - N/A   Clear
6:35 AM 37.4 °F 33.8 °F 19.4 °F 48% 30.00 in 10.0 mi WSW 4.6 mph - N/A   Clear
6:55 AM 37.4 °F 34.9 °F 19.4 °F 48% 30.01 in 10.0 mi SSW 3.5 mph - N/A   Clear
7:15 AM 39.2 °F - 19.4 °F 45% 30.00 in 10.0 mi Calm Calm - N/A   Clear
7:35 AM 39.2 °F - 19.4 °F 45% 30.00 in 10.0 mi Calm Calm - N/A   Clear
7:55 AM 39.2 °F - 21.2 °F 49% 30.00 in 10.0 mi Calm Calm - N/A   Clear
8:15 AM 39.2 °F 37.0 °F 21.2 °F 49% 30.00 in 10.0 mi North 3.5 mph - N/A   Clear
8:35 AM 42.8 °F 41.1 °F 21.2 °F 42% 30.01 in 10.0 mi NNE 3.5 mph - N/A   Clear
8:55 AM 44.6 °F 43.1 °F 21.2 °F 39% 30.00 in 10.0 mi NE 3.5 mph - N/A   Clear
9:15 AM 44.6 °F 42.2 °F 21.2 °F 39% 30.00 in 10.0 mi NE 4.6 mph - N/A   Clear
9:35 AM 46.4 °F 44.3 °F 23.0 °F 40% 30.01 in 10.0 mi ENE 4.6 mph - N/A   Clear
9:55 AM 46.4 °F 43.5 °F 23.0 °F 40% 30.00 in 10.0 mi East 5.8 mph - N/A   Clear
10:15 AM 48.2 °F - 19.4 °F 32% 29.99 in 10.0 mi East 3.5 mph - N/A   Clear
10:35 AM 50.0 °F - 17.6 °F 28% 29.99 in 10.0 mi North 6.9 mph - N/A   Clear
10:55 AM 53.6 °F - 14.0 °F 21% 29.98 in 10.0 mi West 9.2 mph 18.4 mph N/A   Clear
11:15 AM 53.6 °F - 14.0 °F 21% 29.97 in 10.0 mi WSW 5.8 mph - N/A   Clear
11:35 AM 53.6 °F - 8.6 °F 16% 29.97 in 10.0 mi WNW 11.5 mph 21.9 mph N/A   Clear
11:55 AM 53.6 °F - 10.4 °F 18% 29.95 in 10.0 mi WNW 11.5 mph 26.5 mph N/A   Clear
12:15 PM 55.4 °F - 8.6 °F 15% 29.94 in 10.0 mi West 13.8 mph 19.6 mph N/A   Clear
12:35 PM 55.4 °F - 10.4 °F 17% 29.93 in 10.0 mi West 11.5 mph 25.3 mph N/A   Clear
12:55 PM 55.4 °F - 8.6 °F 15% 29.92 in 10.0 mi West 16.1 mph 21.9 mph N/A   Clear
1:15 PM 55.4 °F - 8.6 °F 15% 29.91 in 10.0 mi West 12.7 mph 23.0 mph N/A   Clear
1:35 PM 57.2 °F - 8.6 °F 14% 29.91 in 10.0 mi West 9.2 mph - N/A   Clear
1:55 PM 55.4 °F - 6.8 °F 14% 29.90 in 10.0 mi WNW 16.1 mph 25.3 mph N/A   Clear
2:15 PM 55.4 °F - 6.8 °F 14% 29.89 in 10.0 mi West 21.9 mph 36.8 mph N/A   Clear
2:35 PM 55.4 °F - 8.6 °F 15% 29.89 in 10.0 mi West 25.3 mph 31.1 mph N/A   Clear
2:55 PM 55.4 °F - 8.6 °F 15% 29.89 in 10.0 mi West 24.2 mph 29.9 mph N/A   Clear
3:15 PM 55.4 °F - 6.8 °F 14% 29.89 in 10.0 mi West 18.4 mph 32.2 mph N/A   Clear
3:35 PM 53.6 °F - 8.6 °F 16% 29.89 in 10.0 mi West 20.7 mph 29.9 mph N/A   Clear
4:15 PM 51.8 °F - 8.6 °F 18% 29.91 in 10.0 mi West 18.4 mph 24.2 mph N/A   Clear
4:35 PM 50.0 °F - 10.4 °F 20% 29.91 in 10.0 mi West 16.1 mph 24.2 mph N/A   Clear
4:55 PM 48.2 °F - 10.4 °F 22% 29.91 in 10.0 mi West 17.3 mph 25.3 mph N/A   Clear
5:15 PM 48.2 °F - 10.4 °F 22% 29.91 in 10.0 mi WSW 18.4 mph 25.3 mph N/A   Clear
5:35 PM 46.4 °F 39.2 °F 10.4 °F 23% 29.91 in 10.0 mi WSW 18.4 mph 25.3 mph N/A   Clear
5:55 PM 46.4 °F 39.2 °F 14.0 °F 27% 29.91 in 10.0 mi WSW 18.4 mph 26.5 mph N/A   Clear
6:15 PM 46.4 °F 39.8 °F 15.8 °F 29% 29.91 in 10.0 mi WSW 16.1 mph 21.9 mph N/A   Clear
6:55 PM 46.4 °F 39.8 °F 17.6 °F 32% 29.91 in 10.0 mi WSW 16.1 mph 24.2 mph N/A   Clear
7:15 PM 46.4 °F 39.2 °F 19.4 °F 34% 29.91 in 10.0 mi WSW 18.4 mph 24.2 mph N/A   Clear
7:35 PM 46.4 °F 39.2 °F 21.2 °F 37% 29.92 in 10.0 mi WSW 18.4 mph 24.2 mph N/A   Clear
7:55 PM 46.4 °F 39.5 °F 21.2 °F 37% 29.91 in 10.0 mi WSW 17.3 mph 24.2 mph N/A   Clear
8:15 PM 46.4 °F 40.1 °F 19.4 °F 34% 29.91 in 10.0 mi WSW 15.0 mph 23.0 mph N/A   Clear
8:35 PM 44.6 °F 38.1 °F 17.6 °F 34% 29.92 in 10.0 mi WSW 13.8 mph 19.6 mph N/A   Clear
8:55 PM 44.6 °F 38.8 °F 17.6 °F 34% 29.92 in 10.0 mi West 11.5 mph 19.6 mph N/A   Clear
9:15 PM 44.6 °F 39.7 °F 15.8 °F 31% 29.92 in 10.0 mi WSW 9.2 mph - N/A   Clear
9:35 PM 44.6 °F 39.2 °F 15.8 °F 31% 29.92 in 10.0 mi WSW 10.4 mph 16.1 mph N/A   Clear
9:55 PM 41.0 °F 35.8 °F 15.8 °F 36% 29.92 in 10.0 mi SSW 8.1 mph - N/A   Clear
10:15 PM 46.4 °F 40.1 °F 15.8 °F 29% 29.92 in 10.0 mi West 15.0 mph 25.3 mph N/A   Clear
10:35 PM 48.2 °F - 14.0 °F 25% 29.92 in 10.0 mi West 17.3 mph 27.6 mph N/A   Clear
10:55 PM 46.4 °F 39.8 °F 15.8 °F 29% 29.91 in 10.0 mi West 16.1 mph 25.3 mph N/A   Clear
11:15 PM 46.4 °F 39.2 °F 14.0 °F 27% 29.91 in 10.0 mi West 18.4 mph 25.3 mph N/A   Clear
11:35 PM 46.4 °F 39.5 °F 14.0 °F 27% 29.91 in 10.0 mi West 17.3 mph 26.5 mph N/A   Clear
11:55 PM 46.4 °F 39.2 °F 14.0 °F 27% 29.91 in 10.0 mi West 18.4 mph 25.3 mph N/A   Clear